createdAt,value
2022-10-18T00:01:25.654Z,63.4
2022-10-18T00:03:09.349Z,63.5
2022-10-18T00:04:53.067Z,63.4
2022-10-18T00:06:36.769Z,63.4
2022-10-18T00:08:20.459Z,63.4
2022-10-18T00:10:04.170Z,63.4
2022-10-18T00:11:47.865Z,63.5
2022-10-18T00:13:31.567Z,63.5
2022-10-18T00:15:15.274Z,63.5
2022-10-18T00:16:58.970Z,63.5
2022-10-18T00:18:42.683Z,63.5
2022-10-18T00:20:26.385Z,63.5
2022-10-18T00:22:10.085Z,63.5
2022-10-18T00:23:53.793Z,63.5
2022-10-18T00:25:37.481Z,63.5
2022-10-18T00:27:21.193Z,63.5
2022-10-18T00:29:04.891Z,63.5
2022-10-18T00:30:48.593Z,63.5
2022-10-18T00:32:32.294Z,63.5
2022-10-18T00:34:15.994Z,63.5
2022-10-18T00:35:59.701Z,63.5
2022-10-18T00:37:43.405Z,63.5
2022-10-18T00:39:27.100Z,63.5
2022-10-18T00:41:10.798Z,63.5
2022-10-18T00:42:54.511Z,63.4
2022-10-18T00:44:38.206Z,63.5
2022-10-18T00:46:21.917Z,63.5
2022-10-18T00:48:05.606Z,63.5
2022-10-18T00:49:49.338Z,63.5
2022-10-18T00:51:33.040Z,63.5
2022-10-18T00:53:16.717Z,63.5
2022-10-18T00:55:00.422Z,63.5
2022-10-18T00:56:44.122Z,63.5
2022-10-18T00:58:27.838Z,63.5
2022-10-18T01:00:11.526Z,63.5
2022-10-18T01:01:55.224Z,63.5
2022-10-18T01:03:38.940Z,63.5
2022-10-18T01:05:22.635Z,63.5
2022-10-18T01:07:06.331Z,63.5
2022-10-18T01:08:50.043Z,63.5
2022-10-18T01:10:33.742Z,63.6
2022-10-18T01:12:17.445Z,63.5
2022-10-18T01:14:01.145Z,63.6
2022-10-18T01:15:44.853Z,63.6
2022-10-18T01:17:28.558Z,63.6
2022-10-18T01:19:12.263Z,63.6
2022-10-18T01:20:55.952Z,63.6
2022-10-18T01:22:39.657Z,63.7
2022-10-18T01:24:23.361Z,63.7
2022-10-18T01:26:07.058Z,63.6
2022-10-18T01:27:50.771Z,63.6
2022-10-18T01:29:34.466Z,63.7
2022-10-18T01:31:18.170Z,63.7
2022-10-18T01:33:01.869Z,63.7
2022-10-18T01:34:45.585Z,63.7
2022-10-18T01:36:29.278Z,63.6
2022-10-18T01:38:12.976Z,63.6
2022-10-18T01:39:56.681Z,63.6
2022-10-18T01:41:40.403Z,63.6
2022-10-18T01:43:24.100Z,63.6
2022-10-18T01:45:07.797Z,63.5
2022-10-18T01:46:51.499Z,63.6
2022-10-18T01:48:35.197Z,63.6
2022-10-18T01:50:18.898Z,63.6
2022-10-18T01:52:02.601Z,63.6
2022-10-18T01:53:46.308Z,63.6
2022-10-18T01:55:29.998Z,63.6
2022-10-18T01:57:13.704Z,63.6
2022-10-18T01:58:57.409Z,63.5
2022-10-18T02:00:41.106Z,63.6
2022-10-18T02:02:24.811Z,63.6
2022-10-18T02:04:08.519Z,63.6
2022-10-18T02:07:35.915Z,63.6
2022-10-18T02:09:19.628Z,63.6
2022-10-18T02:11:03.333Z,63.6
2022-10-18T02:12:47.027Z,63.5
2022-10-18T02:14:30.730Z,63.6
2022-10-18T02:16:14.430Z,63.6
2022-10-18T02:17:58.139Z,63.6
2022-10-18T02:19:41.859Z,63.6
2022-10-18T02:21:25.541Z,63.6
2022-10-18T02:23:09.239Z,63.6
2022-10-18T02:24:52.954Z,63.5
2022-10-18T02:26:36.655Z,63.5
2022-10-18T02:28:20.366Z,63.5
2022-10-18T02:30:04.062Z,63.6
2022-10-18T02:31:47.760Z,63.6
2022-10-18T02:33:31.460Z,63.5
2022-10-18T02:35:15.161Z,63.5
2022-10-18T02:36:58.868Z,63.5
2022-10-18T02:38:42.569Z,63.5
2022-10-18T02:40:26.273Z,63.5
2022-10-18T02:42:09.967Z,63.5
2022-10-18T02:43:53.674Z,63.5
2022-10-18T02:45:37.381Z,63.5
2022-10-18T02:47:21.078Z,63.5
2022-10-18T02:49:04.776Z,63.5
2022-10-18T02:50:48.483Z,63.5
2022-10-18T02:52:32.182Z,63.5
2022-10-18T02:54:15.888Z,63.5
2022-10-18T02:55:59.584Z,63.5
2022-10-18T02:57:43.292Z,63.5
2022-10-18T02:59:26.996Z,63.5
2022-10-18T03:01:10.689Z,63.5
2022-10-18T03:02:54.389Z,63.5
2022-10-18T03:04:38.094Z,63.5
2022-10-18T03:06:21.801Z,63.5
2022-10-18T03:08:05.514Z,63.5
2022-10-18T03:09:49.204Z,63.5
2022-10-18T03:11:32.909Z,63.5
2022-10-18T03:13:16.609Z,63.6
2022-10-18T03:15:00.304Z,63.6
2022-10-18T03:16:44.012Z,63.6
2022-10-18T03:18:27.718Z,63.6
2022-10-18T03:20:11.420Z,63.6
2022-10-18T03:21:55.126Z,63.6
2022-10-18T03:23:38.819Z,63.6
2022-10-18T03:25:22.530Z,63.6
2022-10-18T03:27:06.236Z,63.6
2022-10-18T03:28:49.925Z,63.6
2022-10-18T03:30:33.636Z,63.7
2022-10-18T03:32:17.341Z,63.7
2022-10-18T03:34:01.030Z,63.6
2022-10-18T03:35:44.741Z,63.6
2022-10-18T03:37:28.445Z,63.6
2022-10-18T03:39:12.156Z,63.6
2022-10-18T03:40:55.851Z,63.6
2022-10-18T03:42:39.547Z,63.6
2022-10-18T03:44:23.248Z,63.6
2022-10-18T03:46:06.957Z,63.6
2022-10-18T03:47:50.647Z,63.6
2022-10-18T03:49:34.371Z,63.6
2022-10-18T03:51:18.056Z,63.6
2022-10-18T03:53:01.761Z,63.6
2022-10-18T03:54:45.470Z,63.6
2022-10-18T03:56:29.164Z,63.6
2022-10-18T03:58:12.872Z,63.5
2022-10-18T03:59:56.584Z,63.6
2022-10-18T04:01:40.270Z,63.6
2022-10-18T04:03:23.978Z,63.5
2022-10-18T04:05:07.686Z,63.6
2022-10-18T04:06:51.376Z,63.6
2022-10-18T04:08:35.101Z,63.6
2022-10-18T04:10:18.782Z,63.6
2022-10-18T04:13:46.195Z,63.5
2022-10-18T04:15:29.896Z,63.4
2022-10-18T04:17:13.604Z,63.4
2022-10-18T04:18:57.301Z,63.4
2022-10-18T04:20:41.017Z,63.4
2022-10-18T04:22:24.706Z,63.4
2022-10-18T04:24:08.408Z,63.5
2022-10-18T04:25:52.110Z,63.5
2022-10-18T04:27:35.819Z,63.5
2022-10-18T04:29:19.534Z,63.5
2022-10-18T04:31:03.225Z,63.5
2022-10-18T04:32:46.946Z,63.5
2022-10-18T04:34:30.637Z,63.5
2022-10-18T04:36:14.322Z,63.5
2022-10-18T04:37:58.029Z,63.5
2022-10-18T04:39:41.727Z,63.5
2022-10-18T04:43:09.132Z,63.5
2022-10-18T04:44:52.833Z,63.5
2022-10-18T04:46:36.548Z,63.5
2022-10-18T04:48:20.244Z,63.5
2022-10-18T04:50:03.947Z,63.5
2022-10-18T04:51:47.658Z,63.5
2022-10-18T04:53:31.367Z,63.5
2022-10-18T04:55:15.049Z,63.5
2022-10-18T04:56:58.752Z,63.5
2022-10-18T04:58:42.450Z,63.5
2022-10-18T05:00:26.162Z,63.5
2022-10-18T05:02:09.882Z,63.5
2022-10-18T05:03:53.560Z,63.5
2022-10-18T05:05:37.268Z,63.5
2022-10-18T05:07:20.964Z,63.5
2022-10-18T05:09:04.670Z,63.5
2022-10-18T05:10:48.376Z,63.5
2022-10-18T05:12:32.074Z,63.5
2022-10-18T05:14:15.778Z,63.5
2022-10-18T05:15:59.480Z,63.5
2022-10-18T05:17:43.209Z,63.5
2022-10-18T05:19:26.893Z,63.5
2022-10-18T05:21:10.585Z,63.5
2022-10-18T05:22:54.430Z,63.5
2022-10-18T05:24:37.997Z,63.5
2022-10-18T05:26:21.696Z,63.5
2022-10-18T05:28:05.418Z,63.6
2022-10-18T05:29:49.122Z,63.5
2022-10-18T05:31:32.801Z,63.6
2022-10-18T05:33:16.510Z,63.6
2022-10-18T05:35:00.233Z,63.6
2022-10-18T05:36:43.922Z,63.6
2022-10-18T05:38:27.717Z,63.5
2022-10-18T05:40:11.365Z,63.6
2022-10-18T05:41:55.026Z,63.7
2022-10-18T05:43:38.726Z,63.9
2022-10-18T05:45:22.420Z,64
2022-10-18T05:47:06.129Z,63.9
2022-10-18T05:48:49.833Z,64
2022-10-18T05:50:33.535Z,63.9
2022-10-18T05:52:17.238Z,63.9
2022-10-18T05:54:00.954Z,63.8
2022-10-18T05:55:44.643Z,63.7
2022-10-18T05:57:28.353Z,63.6
2022-10-18T05:59:12.049Z,63.6
2022-10-18T06:00:55.749Z,63.7
2022-10-18T06:02:39.458Z,63.7
2022-10-18T06:04:23.152Z,63.7
2022-10-18T06:06:06.903Z,63.6
2022-10-18T06:07:50.560Z,63.5
2022-10-18T06:09:34.276Z,63.5
2022-10-18T06:11:17.964Z,63.6
2022-10-18T06:13:01.668Z,63.6
2022-10-18T06:14:45.372Z,63.5
2022-10-18T06:16:29.084Z,63.4
2022-10-18T06:18:12.774Z,63.4
2022-10-18T06:19:56.480Z,63.3
2022-10-18T06:21:40.191Z,63.3
2022-10-18T06:23:23.878Z,63.3
2022-10-18T06:25:07.594Z,63.2
2022-10-18T06:26:51.401Z,63.2
2022-10-18T06:28:34.986Z,63.2
2022-10-18T06:30:18.703Z,63.2
2022-10-18T06:32:02.392Z,63.4
2022-10-18T06:33:46.098Z,63.5
2022-10-18T06:35:29.806Z,63.8
2022-10-18T06:37:13.498Z,63.6
2022-10-18T06:38:57.204Z,63.7
2022-10-18T06:40:40.916Z,63.8
2022-10-18T06:42:24.603Z,63.7
2022-10-18T06:44:08.313Z,63.6
2022-10-18T06:45:52.011Z,63.5
2022-10-18T06:47:35.714Z,63.5
2022-10-18T06:49:19.416Z,63.5
2022-10-18T06:51:03.124Z,63.4
2022-10-18T06:52:46.825Z,63.4
2022-10-18T06:54:30.523Z,63.3
2022-10-18T06:56:14.228Z,63.3
2022-10-18T06:57:57.929Z,63.3
2022-10-18T06:59:41.629Z,63.3
2022-10-18T07:01:25.333Z,63.4
2022-10-18T07:03:09.098Z,63.4
2022-10-18T07:04:52.745Z,63.3
2022-10-18T07:06:36.502Z,63.2
2022-10-18T07:08:20.148Z,63.3
2022-10-18T07:10:03.855Z,63.2
2022-10-18T07:11:47.550Z,63.3
2022-10-18T07:13:31.256Z,63.2
2022-10-18T07:15:14.995Z,63.2
2022-10-18T07:16:58.664Z,63.2
2022-10-18T07:18:42.366Z,63.2
2022-10-18T07:20:26.075Z,63.1
2022-10-18T07:22:09.775Z,63.1
2022-10-18T07:23:53.484Z,63.1
2022-10-18T07:25:37.178Z,63.1
2022-10-18T07:27:20.883Z,63.1
2022-10-18T07:29:04.577Z,63
2022-10-18T07:30:48.296Z,63
2022-10-18T07:32:31.987Z,63
2022-10-18T07:34:15.701Z,63.4
2022-10-18T07:35:59.387Z,63.5
2022-10-18T07:37:43.092Z,63.6
2022-10-18T07:39:26.794Z,63.3
2022-10-18T07:41:10.534Z,63.2
2022-10-18T07:42:54.197Z,63.1
2022-10-18T07:44:37.896Z,63.1
2022-10-18T07:46:21.621Z,63.1
2022-10-18T07:48:05.306Z,63.1
2022-10-18T07:49:49.014Z,63.1
2022-10-18T07:51:32.710Z,63
2022-10-18T07:53:16.410Z,63.2
2022-10-18T07:55:00.117Z,63.2
2022-10-18T07:56:43.842Z,63.8
2022-10-18T07:58:27.522Z,63.7
2022-10-18T08:00:11.225Z,63.8
2022-10-18T08:01:54.922Z,63.4
2022-10-18T08:03:38.626Z,63.3
2022-10-18T08:05:22.330Z,63.3
2022-10-18T08:07:06.027Z,63.3
2022-10-18T08:08:49.736Z,63.2
2022-10-18T08:10:33.439Z,63.2
2022-10-18T08:12:17.139Z,63.2
2022-10-18T08:14:00.843Z,63.2
2022-10-18T08:15:44.535Z,63.2
2022-10-18T08:17:28.244Z,63.2
2022-10-18T08:19:11.943Z,63.2
2022-10-18T08:20:55.640Z,63.2
2022-10-18T08:22:39.346Z,63.1
2022-10-18T08:24:23.049Z,62.9
2022-10-18T08:26:06.755Z,63
2022-10-18T08:27:50.452Z,62.9
2022-10-18T08:29:34.171Z,62.9
2022-10-18T08:31:17.983Z,62.9
2022-10-18T08:33:01.715Z,62.9
2022-10-18T08:34:45.378Z,62.9
2022-10-18T08:36:29.091Z,62.8
2022-10-18T08:38:12.808Z,62.8
2022-10-18T08:39:56.537Z,62.8
2022-10-18T08:41:40.160Z,62.8
2022-10-18T08:43:23.775Z,62.8
2022-10-18T08:45:07.622Z,62.7
2022-10-18T08:46:51.329Z,62.7
2022-10-18T08:48:34.888Z,62.7
2022-10-18T08:50:18.616Z,62.6
2022-10-18T08:52:02.427Z,62.6
2022-10-18T08:53:46.136Z,62.6
2022-10-18T08:55:29.833Z,62.5
2022-10-18T08:57:13.540Z,62.3
2022-10-18T08:58:57.244Z,62.3
2022-10-18T09:00:40.941Z,62.2
2022-10-18T09:02:24.669Z,62.2
2022-10-18T09:04:08.208Z,62.2
2022-10-18T09:05:52.027Z,62.2
2022-10-18T09:07:35.761Z,62.1
2022-10-18T09:09:19.309Z,62.1
2022-10-18T09:11:03.022Z,62.1
2022-10-18T09:12:46.782Z,62.1
2022-10-18T09:14:30.442Z,62.1
2022-10-18T09:16:14.150Z,62.1
2022-10-18T09:17:57.857Z,62.1
2022-10-18T09:19:41.630Z,62
2022-10-18T09:21:25.227Z,62
2022-10-18T09:23:09.022Z,61.9
2022-10-18T09:24:52.726Z,61.9
2022-10-18T09:26:36.442Z,61.8
2022-10-18T09:28:20.081Z,61.9
2022-10-18T09:30:03.743Z,61.9
2022-10-18T09:31:47.473Z,61.9
2022-10-18T09:33:31.243Z,61.8
2022-10-18T09:35:14.846Z,61.9
2022-10-18T09:36:58.559Z,61.9
2022-10-18T09:38:42.287Z,61.8
2022-10-18T09:40:25.961Z,61.9
2022-10-18T09:42:09.677Z,61.9
2022-10-18T09:43:53.395Z,61.9
2022-10-18T09:45:37.150Z,61.9
2022-10-18T09:47:20.770Z,61.9
2022-10-18T09:49:04.470Z,61.9
2022-10-18T09:50:48.172Z,61.9
2022-10-18T09:52:31.985Z,61.9
2022-10-18T09:54:15.669Z,61.9
2022-10-18T09:55:59.286Z,61.9
2022-10-18T09:57:43.045Z,61.9
2022-10-18T09:59:26.686Z,61.9
2022-10-18T10:01:10.390Z,61.9
2022-10-18T10:02:54.148Z,62
2022-10-18T10:04:37.823Z,61.9
2022-10-18T10:06:21.495Z,61.9
2022-10-18T10:08:05.231Z,61.8
2022-10-18T10:09:48.963Z,61.8
2022-10-18T10:11:32.601Z,61.8
2022-10-18T10:13:16.302Z,61.8
2022-10-18T10:15:00.013Z,61.8
2022-10-18T10:16:43.701Z,61.8
2022-10-18T10:18:27.438Z,61.8
2022-10-18T10:20:11.113Z,61.8
2022-10-18T10:21:54.803Z,61.9
2022-10-18T10:23:38.520Z,61.8
2022-10-18T10:25:22.219Z,61.9
2022-10-18T10:27:05.941Z,62.1
2022-10-18T10:28:49.632Z,62.2
2022-10-18T10:30:33.326Z,62
2022-10-18T10:32:17.021Z,62
2022-10-18T10:34:00.732Z,61.9
2022-10-18T10:35:44.452Z,61.9
2022-10-18T10:37:28.164Z,62
2022-10-18T10:39:11.863Z,62
2022-10-18T10:40:55.563Z,62
2022-10-18T10:42:39.304Z,62
2022-10-18T10:44:23.015Z,62
2022-10-18T10:46:06.667Z,62
2022-10-18T10:47:50.369Z,62
2022-10-18T10:49:34.052Z,62
2022-10-18T10:51:17.809Z,62
2022-10-18T10:53:01.463Z,62.1
2022-10-18T10:54:45.155Z,62
2022-10-18T10:56:28.884Z,62
2022-10-18T10:58:12.657Z,62
2022-10-18T10:59:56.265Z,62
2022-10-18T11:01:39.967Z,62
2022-10-18T11:03:23.679Z,62.1
2022-10-18T11:05:07.375Z,62.1
2022-10-18T11:06:51.110Z,62.4
2022-10-18T11:08:34.911Z,62.5
2022-10-18T11:10:18.480Z,62.4
2022-10-18T11:12:02.187Z,62.5
2022-10-18T11:13:45.924Z,62.5
2022-10-18T11:15:29.588Z,62.5
2022-10-18T11:17:13.285Z,62.6
2022-10-18T11:18:56.990Z,62.6
2022-10-18T11:20:40.694Z,62.6
2022-10-18T11:22:24.444Z,62.9
2022-10-18T11:24:08.094Z,63.1
2022-10-18T11:25:51.798Z,62.9
2022-10-18T11:27:35.499Z,62.9
2022-10-18T11:29:19.212Z,62.8
2022-10-18T11:31:02.911Z,62.9
2022-10-18T11:32:46.694Z,62.9
2022-10-18T11:34:30.314Z,62.9
2022-10-18T11:36:14.009Z,62.9
2022-10-18T11:37:57.713Z,62.9
2022-10-18T11:39:41.423Z,63
2022-10-18T11:41:25.159Z,62.9
2022-10-18T11:43:08.824Z,62.9
2022-10-18T11:44:52.567Z,62.9
2022-10-18T11:46:36.251Z,62.9
2022-10-18T11:48:19.931Z,63
2022-10-18T11:50:03.671Z,63
2022-10-18T11:51:47.334Z,63
2022-10-18T11:53:31.042Z,63.1
2022-10-18T11:55:14.739Z,63.1
2022-10-18T11:56:58.437Z,63.1
2022-10-18T11:58:42.140Z,63.1
2022-10-18T12:00:25.846Z,63.1
2022-10-18T12:02:09.549Z,63.1
2022-10-18T12:03:53.246Z,63
2022-10-18T12:05:36.954Z,63
2022-10-18T12:07:20.674Z,62.9
2022-10-18T12:09:04.354Z,62.9
2022-10-18T12:10:48.066Z,62.9
2022-10-18T12:12:31.764Z,62.8
2022-10-18T12:14:15.474Z,62.7
2022-10-18T12:15:59.169Z,62.7
2022-10-18T12:17:42.899Z,62.8
2022-10-18T12:19:26.573Z,62.8
2022-10-18T12:21:10.279Z,62.8
2022-10-18T12:22:53.989Z,62.8
2022-10-18T12:24:37.676Z,62.8
2022-10-18T12:26:21.385Z,62.8
2022-10-18T12:28:05.084Z,62.7
2022-10-18T12:29:48.787Z,62.7
2022-10-18T12:31:32.486Z,62.6
2022-10-18T12:33:16.193Z,62.6
2022-10-18T12:34:59.933Z,62.6
2022-10-18T12:36:43.594Z,62.6
2022-10-18T12:38:27.310Z,62.5
2022-10-18T12:40:10.997Z,62.5
2022-10-18T12:41:54.716Z,62.4
2022-10-18T12:43:38.418Z,62.3
2022-10-18T12:45:22.109Z,62.2
2022-10-18T12:47:05.816Z,62.2
2022-10-18T12:48:49.510Z,62.1
2022-10-18T12:50:33.208Z,62.2
2022-10-18T12:52:16.913Z,62.2
2022-10-18T12:54:00.621Z,62.2
2022-10-18T12:55:44.346Z,62.2
2022-10-18T12:57:28.075Z,62.2
2022-10-18T12:59:11.761Z,62.2
2022-10-18T13:00:55.487Z,62.1
2022-10-18T13:02:39.175Z,62
2022-10-18T13:04:22.827Z,62
2022-10-18T13:06:06.534Z,62.1
2022-10-18T13:07:50.237Z,62.1
2022-10-18T13:09:33.964Z,62.2
2022-10-18T13:11:17.643Z,62.2
2022-10-18T13:13:01.349Z,62.1
2022-10-18T13:14:45.056Z,62.1
2022-10-18T13:16:28.768Z,62
2022-10-18T13:18:12.458Z,62.1
2022-10-18T13:19:56.150Z,62.1
2022-10-18T13:21:39.865Z,62.1
2022-10-18T13:23:23.557Z,62.1
2022-10-18T13:25:07.276Z,62.1
2022-10-18T13:26:50.991Z,62.1
2022-10-18T13:28:34.672Z,62.1
2022-10-18T13:30:18.366Z,62
2022-10-18T13:32:02.081Z,62
2022-10-18T13:33:45.886Z,62
2022-10-18T13:35:29.483Z,62
2022-10-18T13:37:13.175Z,62
2022-10-18T13:38:56.907Z,62
2022-10-18T13:40:40.585Z,61.9
2022-10-18T13:42:24.285Z,61.9
2022-10-18T13:44:07.999Z,61.9
2022-10-18T13:45:51.681Z,61.8
2022-10-18T13:47:35.397Z,61.8
2022-10-18T13:49:19.099Z,61.8
2022-10-18T13:51:02.810Z,61.8
2022-10-18T13:52:46.497Z,61.7
2022-10-18T13:54:30.204Z,61.7
2022-10-18T13:56:13.899Z,61.7
2022-10-18T13:57:57.606Z,61.7
2022-10-18T13:59:41.311Z,61.6
2022-10-18T14:01:25.009Z,61.6
2022-10-18T14:03:08.716Z,61.6
2022-10-18T14:04:52.427Z,61.5
2022-10-18T14:06:36.138Z,61.5
2022-10-18T14:08:19.933Z,61.5
2022-10-18T14:10:03.546Z,61.5
2022-10-18T14:11:47.260Z,61.4
2022-10-18T14:13:30.956Z,61.5
2022-10-18T14:15:14.647Z,61.5
2022-10-18T14:16:58.340Z,61.5
2022-10-18T14:18:42.043Z,61.5
2022-10-18T14:20:25.742Z,61.6
2022-10-18T14:22:09.477Z,61.7
2022-10-18T14:23:53.170Z,61.7
2022-10-18T14:25:36.853Z,61.7
2022-10-18T14:27:20.551Z,61.7
2022-10-18T14:29:04.285Z,61.7
2022-10-18T14:30:47.957Z,61.8
2022-10-18T14:32:31.702Z,61.8
2022-10-18T14:34:15.407Z,61.8
2022-10-18T14:35:59.074Z,61.9
2022-10-18T14:37:42.809Z,62
2022-10-18T14:39:26.485Z,62.1
2022-10-18T14:41:10.177Z,62.2
2022-10-18T14:42:53.921Z,62.2
2022-10-18T14:44:37.579Z,62.3
2022-10-18T14:46:21.286Z,62.4
2022-10-18T14:48:04.983Z,62.4
2022-10-18T14:49:48.697Z,62.4
2022-10-18T14:51:32.391Z,62.5
2022-10-18T14:53:16.096Z,62.5
2022-10-18T14:54:59.808Z,62.5
2022-10-18T14:56:43.525Z,62.4
2022-10-18T14:58:27.203Z,62.3
2022-10-18T15:00:10.908Z,62.2
2022-10-18T15:01:54.609Z,62
2022-10-18T15:03:38.347Z,62
2022-10-18T15:05:22.009Z,61.9
2022-10-18T15:07:05.706Z,61.8
2022-10-18T15:08:49.429Z,61.8
2022-10-18T15:10:33.106Z,61.7
2022-10-18T15:12:16.813Z,61.6
2022-10-18T15:14:00.520Z,61.6
2022-10-18T15:15:44.225Z,61.6
2022-10-18T15:17:27.940Z,61.4
2022-10-18T15:19:11.616Z,61.2
2022-10-18T15:20:55.339Z,60.7
2022-10-18T15:22:39.034Z,60.5
2022-10-18T15:24:22.721Z,60.5
2022-10-18T15:26:06.427Z,60.2
2022-10-18T15:27:50.131Z,60.2
2022-10-18T15:29:33.843Z,60.7
2022-10-18T15:31:17.532Z,60.9
2022-10-18T15:33:01.244Z,61.2
2022-10-18T15:34:44.937Z,61.6
2022-10-18T15:36:28.775Z,61.7
2022-10-18T15:38:12.342Z,61.8
2022-10-18T15:39:56.066Z,61.8
2022-10-18T15:41:39.755Z,61.8
2022-10-18T15:43:23.446Z,61.8
2022-10-18T15:45:07.151Z,61.7
2022-10-18T15:46:50.866Z,61.7
2022-10-18T15:48:34.556Z,61.7
2022-10-18T15:50:18.288Z,61.6
2022-10-18T15:52:01.977Z,61.6
2022-10-18T15:53:45.670Z,61.7
2022-10-18T15:55:29.365Z,61.7
2022-10-18T15:57:13.067Z,61.7
2022-10-18T15:58:56.770Z,61.9
2022-10-18T16:00:40.479Z,62.8
2022-10-18T16:02:24.172Z,62.8
2022-10-18T16:04:07.879Z,62.5
2022-10-18T16:05:51.574Z,62.7
2022-10-18T16:07:35.277Z,62.9
2022-10-18T16:09:18.987Z,63.1
2022-10-18T16:11:02.676Z,63.1
2022-10-18T16:12:46.460Z,63.2
2022-10-18T16:14:30.090Z,63
2022-10-18T16:16:13.831Z,63.1
2022-10-18T16:17:57.492Z,63.2
2022-10-18T16:19:41.194Z,63.1
2022-10-18T16:21:24.898Z,63.2
2022-10-18T16:23:08.604Z,63.2
2022-10-18T16:24:52.324Z,63.2
2022-10-18T16:26:36.006Z,63.3
2022-10-18T16:28:19.712Z,63.3
2022-10-18T16:30:03.404Z,63.5
2022-10-18T16:31:47.109Z,63.5
2022-10-18T16:33:30.816Z,63.6
2022-10-18T16:35:14.514Z,63.5
2022-10-18T16:36:58.325Z,63.5
2022-10-18T16:38:41.918Z,63.8
2022-10-18T16:40:25.624Z,63.9
2022-10-18T16:42:09.416Z,63.9
2022-10-18T16:43:53.036Z,63.9
2022-10-18T16:45:36.728Z,64
2022-10-18T16:47:20.504Z,64
2022-10-18T16:49:04.273Z,64.1
2022-10-18T16:50:47.839Z,64.2
2022-10-18T16:52:31.541Z,64.2
2022-10-18T16:54:15.274Z,64.3
2022-10-18T16:55:58.980Z,64.4
2022-10-18T16:57:42.648Z,64.4
2022-10-18T16:59:26.530Z,64.3
2022-10-18T17:01:10.058Z,64.3
2022-10-18T17:02:53.792Z,64.4
2022-10-18T17:04:37.465Z,64.5
2022-10-18T17:06:21.164Z,64.6
2022-10-18T17:08:04.861Z,64.7
2022-10-18T17:09:48.572Z,64.5
2022-10-18T17:11:32.265Z,64.4
2022-10-18T17:13:15.971Z,64.4
2022-10-18T17:14:59.675Z,64.4
2022-10-18T17:16:43.373Z,64.4
2022-10-18T17:18:27.076Z,64.4
2022-10-18T17:20:10.866Z,64.5
2022-10-18T17:21:54.485Z,64.4
2022-10-18T17:23:38.186Z,64.4
2022-10-18T17:25:21.949Z,64.4
2022-10-18T17:27:05.674Z,64.4
2022-10-18T17:28:49.298Z,64.4
2022-10-18T17:30:32.990Z,64.4
2022-10-18T17:32:16.693Z,64.4
2022-10-18T17:34:00.399Z,64.4
2022-10-18T17:35:44.118Z,64.4
2022-10-18T17:37:27.816Z,64.4
2022-10-18T17:39:11.503Z,64.4
2022-10-18T17:40:55.214Z,64.4
2022-10-18T17:42:38.915Z,64.4
2022-10-18T17:44:22.613Z,64.4
2022-10-18T17:46:06.356Z,64.4
2022-10-18T17:47:50.018Z,64.4
2022-10-18T17:49:33.720Z,64.4
2022-10-18T17:51:17.420Z,64.4
2022-10-18T17:53:01.184Z,64.4
2022-10-18T17:54:44.846Z,64.8
2022-10-18T17:56:28.523Z,65.4
2022-10-18T17:58:12.218Z,65.4
2022-10-18T17:59:55.926Z,65.3
2022-10-18T18:01:39.715Z,65.3
2022-10-18T18:03:23.332Z,65.3
2022-10-18T18:05:07.035Z,65.3
2022-10-18T18:06:50.750Z,65.2
2022-10-18T18:08:34.439Z,65.3
2022-10-18T18:10:18.141Z,65.3
2022-10-18T18:12:01.841Z,65.4
2022-10-18T18:13:45.541Z,65.4
2022-10-18T18:15:29.241Z,65.4
2022-10-18T18:17:12.964Z,65.4
2022-10-18T18:18:56.655Z,65.4
2022-10-18T18:20:40.359Z,65.5
2022-10-18T18:22:24.057Z,65.4
2022-10-18T18:24:07.762Z,65.4
2022-10-18T18:25:51.469Z,65.4
2022-10-18T18:27:35.169Z,65.5
2022-10-18T18:29:18.901Z,65.5
2022-10-18T18:31:02.571Z,65.5
2022-10-18T18:32:46.283Z,65.5
2022-10-18T18:34:29.970Z,65.5
2022-10-18T18:36:13.676Z,65.5
2022-10-18T18:37:57.400Z,65.5
2022-10-18T18:39:41.116Z,65.5
2022-10-18T18:41:24.779Z,65.5
2022-10-18T18:43:08.490Z,65.5
2022-10-18T18:44:52.188Z,65.6
2022-10-18T18:46:35.893Z,65.6
2022-10-18T18:48:19.586Z,65.6
2022-10-18T18:50:03.305Z,65.6
2022-10-18T18:51:47.018Z,65.6
2022-10-18T18:53:30.699Z,65.6
2022-10-18T18:55:14.405Z,65.6
2022-10-18T18:56:58.099Z,65.5
2022-10-18T18:58:41.806Z,65.5
2022-10-18T19:00:25.514Z,65.5
2022-10-18T19:02:09.209Z,65.5
2022-10-18T19:03:52.917Z,65.5
2022-10-18T19:05:36.613Z,65.6
2022-10-18T19:07:20.320Z,65.6
2022-10-18T19:09:04.029Z,65.6
2022-10-18T19:10:47.724Z,65.6
2022-10-18T19:12:31.427Z,65.4
2022-10-18T19:14:15.144Z,65.2
2022-10-18T19:15:58.832Z,65.1
2022-10-18T19:17:42.541Z,65
2022-10-18T19:19:26.230Z,65
2022-10-18T19:21:09.936Z,65
2022-10-18T19:22:53.640Z,65.1
2022-10-18T19:24:37.332Z,65.2
2022-10-18T19:26:21.041Z,65.1
2022-10-18T19:28:04.746Z,65
2022-10-18T19:29:48.448Z,65
2022-10-18T19:31:32.155Z,65.1
2022-10-18T19:33:15.855Z,65.4
2022-10-18T19:34:59.558Z,65.7
2022-10-18T19:36:43.269Z,66.1
2022-10-18T19:38:26.962Z,66.2
2022-10-18T19:40:10.679Z,66
2022-10-18T19:41:54.393Z,66.2
2022-10-18T19:43:38.076Z,66.1
2022-10-18T19:45:21.802Z,66.3
2022-10-18T19:47:05.536Z,66.7
2022-10-18T19:48:49.182Z,67.3
2022-10-18T19:50:32.892Z,67.7
2022-10-18T19:52:16.641Z,68.3
2022-10-18T19:54:00.330Z,68
2022-10-18T19:55:44.078Z,67.7
2022-10-18T19:57:27.782Z,67.4
2022-10-18T19:59:11.451Z,67
2022-10-18T20:00:55.131Z,66.9
2022-10-18T20:02:38.901Z,66.7
2022-10-18T20:04:22.538Z,66.6
2022-10-18T20:06:06.200Z,66.5
2022-10-18T20:07:50.016Z,66.4
2022-10-18T20:09:33.663Z,66.4
2022-10-18T20:11:17.347Z,66.5
2022-10-18T20:13:01.030Z,66.4
2022-10-18T20:14:44.712Z,66.4
2022-10-18T20:16:28.432Z,66.5
2022-10-18T20:18:12.118Z,66.5
2022-10-18T20:19:55.838Z,66.5
2022-10-18T20:21:39.568Z,66.6
2022-10-18T20:23:23.268Z,66.6
2022-10-18T20:25:06.926Z,66.5
2022-10-18T20:26:50.629Z,66.6
2022-10-18T20:28:34.337Z,66.4
2022-10-18T20:30:18.101Z,66.4
2022-10-18T20:32:01.811Z,66.5
2022-10-18T20:33:45.432Z,66.5
2022-10-18T20:35:29.150Z,66.4
2022-10-18T20:37:12.837Z,66.3
2022-10-18T20:38:56.541Z,66.3
2022-10-18T20:40:40.315Z,66.2
2022-10-18T20:42:23.956Z,66.2
2022-10-18T20:44:07.656Z,66.1
2022-10-18T20:45:51.376Z,66
2022-10-18T20:47:35.134Z,66
2022-10-18T20:49:18.821Z,66
2022-10-18T20:51:02.465Z,66
2022-10-18T20:52:46.232Z,66
2022-10-18T20:54:29.874Z,65.9
2022-10-18T20:56:13.570Z,65.9
2022-10-18T20:57:57.288Z,66.5
2022-10-18T20:59:41.006Z,67.2
2022-10-18T21:01:24.735Z,67.4
2022-10-18T21:03:08.395Z,67.8
2022-10-18T21:04:52.112Z,67.9
2022-10-18T21:06:35.780Z,67.8
2022-10-18T21:08:19.480Z,67.8
2022-10-18T21:10:03.220Z,67.8
2022-10-18T21:11:46.978Z,67.9
2022-10-18T21:13:30.586Z,67.8
2022-10-18T21:15:14.308Z,67.7
2022-10-18T21:16:57.994Z,67.6
2022-10-18T21:18:41.691Z,67.6
2022-10-18T21:20:25.395Z,67.5
2022-10-18T21:22:09.154Z,67.4
2022-10-18T21:23:52.813Z,67.5
2022-10-18T21:25:36.508Z,67.5
2022-10-18T21:27:20.310Z,67.6
2022-10-18T21:29:03.922Z,67.6
2022-10-18T21:30:47.608Z,67.6
2022-10-18T21:32:31.311Z,67.6
2022-10-18T21:34:15.029Z,67.6
2022-10-18T21:35:58.721Z,67.6
2022-10-18T21:37:42.429Z,67.6
2022-10-18T21:39:26.121Z,67.5
2022-10-18T21:41:09.857Z,67.5
2022-10-18T21:42:53.576Z,67.4
2022-10-18T21:44:37.221Z,67.5
2022-10-18T21:46:20.929Z,67.4
2022-10-18T21:48:04.707Z,67.4
2022-10-18T21:49:48.401Z,67.4
2022-10-18T21:51:32.042Z,67.3
2022-10-18T21:53:15.746Z,67.3
2022-10-18T21:54:59.451Z,67.3
2022-10-18T21:56:43.153Z,67.2
2022-10-18T21:58:26.872Z,67.2
2022-10-18T22:00:10.621Z,67.2
2022-10-18T22:01:54.320Z,67.2
2022-10-18T22:03:37.975Z,67.2
2022-10-18T22:05:21.670Z,67.2
2022-10-18T22:07:05.375Z,67.2
2022-10-18T22:08:49.068Z,67.1
2022-10-18T22:10:32.769Z,67.2
2022-10-18T22:12:16.472Z,67.1
2022-10-18T22:14:00.176Z,66.8
2022-10-18T22:15:43.867Z,67.2
2022-10-18T22:17:27.578Z,67.1
2022-10-18T22:19:11.334Z,67
2022-10-18T22:20:54.980Z,67
2022-10-18T22:22:38.682Z,66.9
2022-10-18T22:24:22.492Z,66.8
2022-10-18T22:26:06.088Z,66.8
2022-10-18T22:27:49.793Z,66.8
2022-10-18T22:29:33.492Z,66.7
2022-10-18T22:31:17.195Z,66.7
2022-10-18T22:33:00.903Z,66.7
2022-10-18T22:34:44.598Z,66.7
2022-10-18T22:36:28.302Z,66.7
2022-10-18T22:38:12.041Z,66.7
2022-10-18T22:39:55.711Z,66.7
2022-10-18T22:41:39.414Z,66.6
2022-10-18T22:43:23.129Z,66.6
2022-10-18T22:45:06.814Z,66.6
2022-10-18T22:46:50.519Z,66.6
2022-10-18T22:48:34.223Z,66.6
2022-10-18T22:50:17.919Z,66.5
2022-10-18T22:52:01.662Z,66.5
2022-10-18T22:53:45.326Z,66.5
2022-10-18T22:55:29.027Z,66.5
2022-10-18T22:57:12.726Z,66.4
2022-10-18T22:58:56.427Z,66.5
2022-10-18T23:00:40.133Z,66.5
2022-10-18T23:02:23.863Z,66.5
2022-10-18T23:04:07.555Z,66.5
2022-10-18T23:05:51.247Z,66.5
2022-10-18T23:07:34.943Z,66.4
2022-10-18T23:09:18.668Z,66.4
2022-10-18T23:11:02.347Z,66.4
2022-10-18T23:12:46.064Z,66.4